sensor_id;sensor_type;location;lat;lon;timestamp;P1;durP1;ratioP1;P2;durP2;ratioP2
70829;SDS011;58451;51.550;7.208;2023-10-31T00:00:36;3.70;;;1.40;;
70829;SDS011;58451;51.550;7.208;2023-10-31T00:02:09;5.40;;;1.70;;
70829;SDS011;58451;51.550;7.208;2023-10-31T00:03:41;3.00;;;1.30;;
70829;SDS011;58451;51.550;7.208;2023-10-31T00:05:14;3.90;;;1.50;;
70829;SDS011;58451;51.550;7.208;2023-10-31T00:06:48;4.80;;;1.70;;
70829;SDS011;58451;51.550;7.208;2023-10-31T00:08:20;4.60;;;2.10;;
70829;SDS011;58451;51.550;7.208;2023-10-31T00:09:52;5.20;;;2.20;;
70829;SDS011;58451;51.550;7.208;2023-10-31T00:11:24;3.90;;;1.30;;
70829;SDS011;58451;51.550;7.208;2023-10-31T00:12:56;4.30;;;1.70;;
70829;SDS011;58451;51.550;7.208;2023-10-31T00:14:27;5.30;;;2.20;;
70829;SDS011;58451;51.550;7.208;2023-10-31T00:16:02;5.30;;;2.20;;
70829;SDS011;58451;51.550;7.208;2023-10-31T00:17:34;5.50;;;2.30;;
70829;SDS011;58451;51.550;7.208;2023-10-31T00:19:06;4.30;;;1.80;;
70829;SDS011;58451;51.550;7.208;2023-10-31T00:20:39;8.00;;;2.80;;
70829;SDS011;58451;51.550;7.208;2023-10-31T00:22:10;4.30;;;1.80;;
70829;SDS011;58451;51.550;7.208;2023-10-31T00:23:49;4.70;;;2.10;;
70829;SDS011;58451;51.550;7.208;2023-10-31T00:25:20;5.20;;;2.40;;
70829;SDS011;58451;51.550;7.208;2023-10-31T00:26:52;4.90;;;2.00;;
70829;SDS011;58451;51.550;7.208;2023-10-31T00:28:24;5.60;;;2.30;;
70829;SDS011;58451;51.550;7.208;2023-10-31T00:29:56;4.20;;;1.90;;
70829;SDS011;58451;51.550;7.208;2023-10-31T00:31:28;3.20;;;1.40;;
70829;SDS011;58451;51.550;7.208;2023-10-31T00:33:00;3.20;;;1.20;;
70829;SDS011;58451;51.550;7.208;2023-10-31T00:34:32;3.40;;;1.10;;
70829;SDS011;58451;51.550;7.208;2023-10-31T00:36:04;2.50;;;0.90;;
70829;SDS011;58451;51.550;7.208;2023-10-31T00:37:36;2.70;;;0.90;;
70829;SDS011;58451;51.550;7.208;2023-10-31T00:39:08;2.50;;;1.00;;
70829;SDS011;58451;51.550;7.208;2023-10-31T00:40:39;2.80;;;0.90;;
70829;SDS011;58451;51.550;7.208;2023-10-31T00:42:11;1.70;;;0.70;;
70829;SDS011;58451;51.550;7.208;2023-10-31T00:43:43;2.40;;;0.70;;
70829;SDS011;58451;51.550;7.208;2023-10-31T00:45:15;2.00;;;0.70;;
70829;SDS011;58451;51.550;7.208;2023-10-31T00:46:47;1.80;;;0.70;;
70829;SDS011;58451;51.550;7.208;2023-10-31T00:48:19;1.70;;;0.50;;
70829;SDS011;58451;51.550;7.208;2023-10-31T00:49:51;1.70;;;0.60;;
70829;SDS011;58451;51.550;7.208;2023-10-31T00:51:24;2.60;;;0.60;;
70829;SDS011;58451;51.550;7.208;2023-10-31T00:52:56;1.80;;;0.70;;
70829;SDS011;58451;51.550;7.208;2023-10-31T00:54:28;3.40;;;0.80;;
70829;SDS011;58451;51.550;7.208;2023-10-31T00:56:02;2.50;;;0.70;;
70829;SDS011;58451;51.550;7.208;2023-10-31T00:57:34;2.20;;;0.60;;
70829;SDS011;58451;51.550;7.208;2023-10-31T00:59:06;2.00;;;0.60;;
70829;SDS011;58451;51.550;7.208;2023-10-31T01:00:38;1.70;;;0.60;;
70829;SDS011;58451;51.550;7.208;2023-10-31T01:02:09;1.70;;;0.60;;
70829;SDS011;58451;51.550;7.208;2023-10-31T01:03:42;2.50;;;0.70;;
70829;SDS011;58451;51.550;7.208;2023-10-31T01:05:14;1.60;;;0.50;;
70829;SDS011;58451;51.550;7.208;2023-10-31T01:06:46;1.30;;;0.50;;
70829;SDS011;58451;51.550;7.208;2023-10-31T01:08:18;1.60;;;0.50;;
70829;SDS011;58451;51.550;7.208;2023-10-31T01:09:50;1.30;;;0.40;;
70829;SDS011;58451;51.550;7.208;2023-10-31T01:11:22;1.40;;;0.40;;
70829;SDS011;58451;51.550;7.208;2023-10-31T01:12:53;1.10;;;0.40;;
70829;SDS011;58451;51.550;7.208;2023-10-31T01:14:26;2.50;;;0.30;;
70829;SDS011;58451;51.550;7.208;2023-10-31T01:15:58;1.20;;;0.30;;
70829;SDS011;58451;51.550;7.208;2023-10-31T01:17:30;1.10;;;0.40;;
70829;SDS011;58451;51.550;7.208;2023-10-31T01:19:02;1.40;;;0.40;;
70829;SDS011;58451;51.550;7.208;2023-10-31T01:20:33;2.30;;;0.50;;
70829;SDS011;58451;51.550;7.208;2023-10-31T01:22:05;2.20;;;0.40;;
70829;SDS011;58451;51.550;7.208;2023-10-31T01:23:39;1.70;;;0.30;;
70829;SDS011;58451;51.550;7.208;2023-10-31T01:25:11;1.90;;;0.40;;
70829;SDS011;58451;51.550;7.208;2023-10-31T01:26:42;1.40;;;0.40;;
70829;SDS011;58451;51.550;7.208;2023-10-31T01:28:14;1.40;;;0.40;;
70829;SDS011;58451;51.550;7.208;2023-10-31T01:29:46;1.60;;;0.30;;
70829;SDS011;58451;51.550;7.208;2023-10-31T01:31:18;2.70;;;0.70;;
70829;SDS011;58451;51.550;7.208;2023-10-31T01:32:50;2.60;;;0.70;;
70829;SDS011;58451;51.550;7.208;2023-10-31T01:34:22;2.40;;;0.60;;
70829;SDS011;58451;51.550;7.208;2023-10-31T01:35:54;2.40;;;0.80;;
70829;SDS011;58451;51.550;7.208;2023-10-31T01:37:26;3.20;;;0.80;;
70829;SDS011;58451;51.550;7.208;2023-10-31T01:38:58;2.50;;;0.90;;
70829;SDS011;58451;51.550;7.208;2023-10-31T01:40:31;4.00;;;1.10;;
70829;SDS011;58451;51.550;7.208;2023-10-31T01:42:03;4.50;;;1.40;;
70829;SDS011;58451;51.550;7.208;2023-10-31T01:43:38;4.70;;;1.60;;
70829;SDS011;58451;51.550;7.208;2023-10-31T01:45:10;3.10;;;1.10;;
70829;SDS011;58451;51.550;7.208;2023-10-31T01:46:42;4.80;;;1.90;;
70829;SDS011;58451;51.550;7.208;2023-10-31T01:48:14;4.00;;;1.90;;
70829;SDS011;58451;51.550;7.208;2023-10-31T01:49:46;4.50;;;2.10;;
70829;SDS011;58451;51.550;7.208;2023-10-31T01:51:18;4.40;;;2.20;;
70829;SDS011;58451;51.550;7.208;2023-10-31T01:52:51;5.30;;;1.90;;
70829;SDS011;58451;51.550;7.208;2023-10-31T01:54:23;4.90;;;2.30;;
70829;SDS011;58451;51.550;7.208;2023-10-31T01:55:56;5.30;;;2.10;;
70829;SDS011;58451;51.550;7.208;2023-10-31T01:57:29;6.30;;;2.50;;
70829;SDS011;58451;51.550;7.208;2023-10-31T01:59:02;4.60;;;1.50;;
70829;SDS011;58451;51.550;7.208;2023-10-31T02:00:40;4.80;;;2.20;;
70829;SDS011;58451;51.550;7.208;2023-10-31T02:02:15;7.20;;;2.40;;
70829;SDS011;58451;51.550;7.208;2023-10-31T02:03:48;6.40;;;2.40;;
70829;SDS011;58451;51.550;7.208;2023-10-31T02:05:20;5.70;;;2.20;;
70829;SDS011;58451;51.550;7.208;2023-10-31T02:06:52;5.80;;;2.00;;
70829;SDS011;58451;51.550;7.208;2023-10-31T02:08:25;4.80;;;1.90;;
70829;SDS011;58451;51.550;7.208;2023-10-31T02:09:57;4.90;;;2.10;;
70829;SDS011;58451;51.550;7.208;2023-10-31T02:11:29;5.10;;;2.30;;
70829;SDS011;58451;51.550;7.208;2023-10-31T02:13:11;5.40;;;2.20;;
70829;SDS011;58451;51.550;7.208;2023-10-31T02:14:43;6.30;;;2.30;;
70829;SDS011;58451;51.550;7.208;2023-10-31T02:16:15;4.80;;;2.00;;
70829;SDS011;58451;51.550;7.208;2023-10-31T02:17:47;5.20;;;2.10;;
70829;SDS011;58451;51.550;7.208;2023-10-31T02:19:20;5.10;;;1.50;;
70829;SDS011;58451;51.550;7.208;2023-10-31T02:20:52;6.60;;;2.10;;
70829;SDS011;58451;51.550;7.208;2023-10-31T02:22:24;5.70;;;1.80;;
70829;SDS011;58451;51.550;7.208;2023-10-31T02:24:02;5.40;;;2.00;;
70829;SDS011;58451;51.550;7.208;2023-10-31T02:25:34;5.90;;;2.40;;
70829;SDS011;58451;51.550;7.208;2023-10-31T02:27:06;8.30;;;3.10;;
70829;SDS011;58451;51.550;7.208;2023-10-31T02:28:38;5.20;;;2.00;;
70829;SDS011;58451;51.550;7.208;2023-10-31T02:30:10;8.00;;;2.50;;
70829;SDS011;58451;51.550;7.208;2023-10-31T02:31:42;6.30;;;2.50;;
70829;SDS011;58451;51.550;7.208;2023-10-31T02:33:14;8.90;;;3.20;;
70829;SDS011;58451;51.550;7.208;2023-10-31T02:34:46;8.10;;;2.50;;
70829;SDS011;58451;51.550;7.208;2023-10-31T02:36:19;5.30;;;2.50;;
70829;SDS011;58451;51.550;7.208;2023-10-31T02:37:51;8.00;;;3.10;;
70829;SDS011;58451;51.550;7.208;2023-10-31T02:39:23;7.10;;;2.90;;
70829;SDS011;58451;51.550;7.208;2023-10-31T02:40:55;7.50;;;3.30;;
70829;SDS011;58451;51.550;7.208;2023-10-31T02:42:27;9.30;;;3.70;;
70829;SDS011;58451;51.550;7.208;2023-10-31T02:43:59;7.40;;;3.60;;
70829;SDS011;58451;51.550;7.208;2023-10-31T02:45:30;10.60;;;3.40;;
70829;SDS011;58451;51.550;7.208;2023-10-31T02:47:03;9.20;;;3.70;;
70829;SDS011;58451;51.550;7.208;2023-10-31T02:48:35;9.90;;;3.70;;
70829;SDS011;58451;51.550;7.208;2023-10-31T02:50:11;7.60;;;3.60;;
70829;SDS011;58451;51.550;7.208;2023-10-31T02:51:43;9.40;;;4.30;;
70829;SDS011;58451;51.550;7.208;2023-10-31T02:53:15;9.30;;;4.30;;
70829;SDS011;58451;51.550;7.208;2023-10-31T02:54:46;8.30;;;3.70;;
70829;SDS011;58451;51.550;7.208;2023-10-31T02:56:19;10.60;;;3.80;;
70829;SDS011;58451;51.550;7.208;2023-10-31T02:57:51;9.10;;;3.70;;
70829;SDS011;58451;51.550;7.208;2023-10-31T02:59:22;8.70;;;3.70;;
70829;SDS011;58451;51.550;7.208;2023-10-31T03:00:54;7.80;;;3.30;;
70829;SDS011;58451;51.550;7.208;2023-10-31T03:02:27;8.40;;;3.40;;
70829;SDS011;58451;51.550;7.208;2023-10-31T03:03:59;8.90;;;3.80;;
70829;SDS011;58451;51.550;7.208;2023-10-31T03:05:31;6.80;;;2.80;;
70829;SDS011;58451;51.550;7.208;2023-10-31T03:07:03;7.80;;;3.10;;
70829;SDS011;58451;51.550;7.208;2023-10-31T03:08:34;8.20;;;3.50;;
70829;SDS011;58451;51.550;7.208;2023-10-31T03:10:07;7.70;;;4.00;;
70829;SDS011;58451;51.550;7.208;2023-10-31T03:11:39;7.70;;;3.60;;
70829;SDS011;58451;51.550;7.208;2023-10-31T03:13:10;9.20;;;4.10;;
70829;SDS011;58451;51.550;7.208;2023-10-31T03:14:42;8.50;;;3.70;;
70829;SDS011;58451;51.550;7.208;2023-10-31T03:16:14;9.40;;;3.80;;
70829;SDS011;58451;51.550;7.208;2023-10-31T03:17:46;9.20;;;4.10;;
70829;SDS011;58451;51.550;7.208;2023-10-31T03:19:18;10.00;;;4.30;;
70829;SDS011;58451;51.550;7.208;2023-10-31T03:20:50;7.60;;;3.40;;
70829;SDS011;58451;51.550;7.208;2023-10-31T03:22:21;8.30;;;3.80;;
70829;SDS011;58451;51.550;7.208;2023-10-31T03:23:53;10.00;;;4.10;;
70829;SDS011;58451;51.550;7.208;2023-10-31T03:25:27;10.40;;;4.30;;
70829;SDS011;58451;51.550;7.208;2023-10-31T03:26:59;11.80;;;5.20;;
70829;SDS011;58451;51.550;7.208;2023-10-31T03:28:31;11.10;;;4.90;;
70829;SDS011;58451;51.550;7.208;2023-10-31T03:30:03;13.80;;;6.20;;
70829;SDS011;58451;51.550;7.208;2023-10-31T03:31:37;12.80;;;5.40;;
70829;SDS011;58451;51.550;7.208;2023-10-31T03:33:09;10.50;;;5.20;;
70829;SDS011;58451;51.550;7.208;2023-10-31T03:34:40;11.00;;;5.40;;
70829;SDS011;58451;51.550;7.208;2023-10-31T03:36:13;12.70;;;5.60;;
70829;SDS011;58451;51.550;7.208;2023-10-31T03:37:45;9.70;;;4.10;;
70829;SDS011;58451;51.550;7.208;2023-10-31T03:39:17;12.30;;;4.90;;
70829;SDS011;58451;51.550;7.208;2023-10-31T03:40:49;14.00;;;6.70;;
70829;SDS011;58451;51.550;7.208;2023-10-31T03:42:21;12.10;;;5.40;;
70829;SDS011;58451;51.550;7.208;2023-10-31T03:43:52;13.30;;;5.70;;
70829;SDS011;58451;51.550;7.208;2023-10-31T03:45:25;11.70;;;5.40;;
70829;SDS011;58451;51.550;7.208;2023-10-31T03:46:56;13.70;;;5.70;;
70829;SDS011;58451;51.550;7.208;2023-10-31T03:48:28;14.30;;;6.20;;
70829;SDS011;58451;51.550;7.208;2023-10-31T03:50:00;13.60;;;6.30;;
70829;SDS011;58451;51.550;7.208;2023-10-31T03:51:33;14.00;;;6.50;;
70829;SDS011;58451;51.550;7.208;2023-10-31T03:53:05;14.70;;;6.90;;
70829;SDS011;58451;51.550;7.208;2023-10-31T03:54:37;16.10;;;7.90;;
70829;SDS011;58451;51.550;7.208;2023-10-31T03:56:09;13.20;;;5.50;;
70829;SDS011;58451;51.550;7.208;2023-10-31T03:57:41;16.00;;;6.90;;
70829;SDS011;58451;51.550;7.208;2023-10-31T03:59:13;14.10;;;6.80;;
70829;SDS011;58451;51.550;7.208;2023-10-31T04:00:45;15.00;;;6.20;;
70829;SDS011;58451;51.550;7.208;2023-10-31T04:02:17;14.10;;;6.20;;
70829;SDS011;58451;51.550;7.208;2023-10-31T04:03:48;14.80;;;6.70;;
70829;SDS011;58451;51.550;7.208;2023-10-31T04:05:21;15.80;;;7.10;;
70829;SDS011;58451;51.550;7.208;2023-10-31T04:06:54;12.60;;;5.60;;
70829;SDS011;58451;51.550;7.208;2023-10-31T04:08:26;13.20;;;5.70;;
70829;SDS011;58451;51.550;7.208;2023-10-31T04:09:58;17.50;;;6.30;;
70829;SDS011;58451;51.550;7.208;2023-10-31T04:11:30;15.00;;;6.30;;
70829;SDS011;58451;51.550;7.208;2023-10-31T04:13:02;14.20;;;6.80;;
70829;SDS011;58451;51.550;7.208;2023-10-31T04:14:34;16.30;;;7.30;;
70829;SDS011;58451;51.550;7.208;2023-10-31T04:16:06;12.50;;;6.00;;
70829;SDS011;58451;51.550;7.208;2023-10-31T04:17:38;14.00;;;5.70;;
70829;SDS011;58451;51.550;7.208;2023-10-31T04:19:10;14.00;;;6.10;;
70829;SDS011;58451;51.550;7.208;2023-10-31T04:20:42;14.70;;;5.50;;
70829;SDS011;58451;51.550;7.208;2023-10-31T04:22:14;12.30;;;5.80;;
70829;SDS011;58451;51.550;7.208;2023-10-31T04:23:46;10.60;;;5.30;;
70829;SDS011;58451;51.550;7.208;2023-10-31T04:25:18;12.30;;;5.30;;
70829;SDS011;58451;51.550;7.208;2023-10-31T04:26:50;9.70;;;4.20;;
70829;SDS011;58451;51.550;7.208;2023-10-31T04:28:21;11.10;;;4.50;;
70829;SDS011;58451;51.550;7.208;2023-10-31T04:29:53;9.00;;;4.20;;
70829;SDS011;58451;51.550;7.208;2023-10-31T04:31:25;10.50;;;4.50;;
70829;SDS011;58451;51.550;7.208;2023-10-31T04:33:11;9.80;;;4.10;;
70829;SDS011;58451;51.550;7.208;2023-10-31T04:34:43;10.00;;;3.70;;
70829;SDS011;58451;51.550;7.208;2023-10-31T04:36:15;8.90;;;3.80;;
70829;SDS011;58451;51.550;7.208;2023-10-31T04:37:47;8.40;;;3.20;;
70829;SDS011;58451;51.550;7.208;2023-10-31T04:39:19;10.10;;;4.30;;
70829;SDS011;58451;51.550;7.208;2023-10-31T04:40:50;9.40;;;3.50;;
70829;SDS011;58451;51.550;7.208;2023-10-31T04:42:22;10.20;;;3.80;;
70829;SDS011;58451;51.550;7.208;2023-10-31T04:43:54;8.90;;;3.80;;
70829;SDS011;58451;51.550;7.208;2023-10-31T04:45:26;9.70;;;3.70;;
70829;SDS011;58451;51.550;7.208;2023-10-31T04:46:58;9.40;;;4.10;;
70829;SDS011;58451;51.550;7.208;2023-10-31T04:48:31;9.00;;;3.70;;
70829;SDS011;58451;51.550;7.208;2023-10-31T04:50:03;10.60;;;4.30;;
70829;SDS011;58451;51.550;7.208;2023-10-31T04:51:36;9.90;;;4.00;;
70829;SDS011;58451;51.550;7.208;2023-10-31T04:53:08;9.30;;;3.90;;
70829;SDS011;58451;51.550;7.208;2023-10-31T04:54:40;10.50;;;4.40;;
70829;SDS011;58451;51.550;7.208;2023-10-31T04:56:13;8.80;;;3.70;;
70829;SDS011;58451;51.550;7.208;2023-10-31T04:57:46;8.50;;;3.70;;
70829;SDS011;58451;51.550;7.208;2023-10-31T04:59:18;8.60;;;3.60;;
70829;SDS011;58451;51.550;7.208;2023-10-31T05:00:50;8.70;;;3.50;;
70829;SDS011;58451;51.550;7.208;2023-10-31T05:02:22;8.90;;;3.90;;
70829;SDS011;58451;51.550;7.208;2023-10-31T05:03:56;10.20;;;4.00;;
70829;SDS011;58451;51.550;7.208;2023-10-31T05:05:41;11.50;;;4.10;;
70829;SDS011;58451;51.550;7.208;2023-10-31T05:07:13;10.60;;;4.00;;
70829;SDS011;58451;51.550;7.208;2023-10-31T05:08:45;11.10;;;4.40;;
70829;SDS011;58451;51.550;7.208;2023-10-31T05:10:17;12.60;;;4.70;;
70829;SDS011;58451;51.550;7.208;2023-10-31T05:11:49;10.90;;;4.30;;
70829;SDS011;58451;51.550;7.208;2023-10-31T05:13:21;10.50;;;4.60;;
70829;SDS011;58451;51.550;7.208;2023-10-31T05:14:53;10.40;;;4.50;;
70829;SDS011;58451;51.550;7.208;2023-10-31T05:16:24;11.10;;;4.40;;
70829;SDS011;58451;51.550;7.208;2023-10-31T05:17:56;10.40;;;4.60;;
70829;SDS011;58451;51.550;7.208;2023-10-31T05:19:29;10.40;;;4.20;;
70829;SDS011;58451;51.550;7.208;2023-10-31T05:21:01;9.70;;;3.90;;
70829;SDS011;58451;51.550;7.208;2023-10-31T05:22:33;10.30;;;4.40;;
70829;SDS011;58451;51.550;7.208;2023-10-31T05:24:06;10.40;;;4.60;;
70829;SDS011;58451;51.550;7.208;2023-10-31T05:25:38;10.20;;;4.60;;
70829;SDS011;58451;51.550;7.208;2023-10-31T05:27:10;10.30;;;4.50;;
70829;SDS011;58451;51.550;7.208;2023-10-31T05:28:42;10.20;;;4.70;;
70829;SDS011;58451;51.550;7.208;2023-10-31T05:30:14;12.50;;;4.60;;
70829;SDS011;58451;51.550;7.208;2023-10-31T05:31:46;10.50;;;4.10;;
70829;SDS011;58451;51.550;7.208;2023-10-31T05:33:18;8.90;;;3.80;;
70829;SDS011;58451;51.550;7.208;2023-10-31T05:34:50;10.10;;;4.20;;
70829;SDS011;58451;51.550;7.208;2023-10-31T05:36:25;10.10;;;3.90;;
70829;SDS011;58451;51.550;7.208;2023-10-31T05:37:59;10.60;;;4.30;;
70829;SDS011;58451;51.550;7.208;2023-10-31T05:39:31;10.90;;;4.60;;
70829;SDS011;58451;51.550;7.208;2023-10-31T05:41:08;11.90;;;4.30;;
70829;SDS011;58451;51.550;7.208;2023-10-31T05:42:40;11.20;;;4.40;;
70829;SDS011;58451;51.550;7.208;2023-10-31T05:44:11;11.20;;;4.80;;
70829;SDS011;58451;51.550;7.208;2023-10-31T05:45:43;11.10;;;4.80;;
70829;SDS011;58451;51.550;7.208;2023-10-31T05:47:16;11.00;;;4.40;;
70829;SDS011;58451;51.550;7.208;2023-10-31T05:48:47;11.70;;;4.80;;
70829;SDS011;58451;51.550;7.208;2023-10-31T05:50:20;12.90;;;5.00;;
70829;SDS011;58451;51.550;7.208;2023-10-31T05:51:53;10.30;;;4.60;;
70829;SDS011;58451;51.550;7.208;2023-10-31T05:53:25;12.00;;;4.90;;
70829;SDS011;58451;51.550;7.208;2023-10-31T05:54:56;10.90;;;4.40;;
70829;SDS011;58451;51.550;7.208;2023-10-31T05:56:28;11.00;;;4.50;;
70829;SDS011;58451;51.550;7.208;2023-10-31T05:58:00;10.90;;;4.20;;
70829;SDS011;58451;51.550;7.208;2023-10-31T05:59:32;12.50;;;5.00;;
70829;SDS011;58451;51.550;7.208;2023-10-31T06:01:04;11.60;;;5.10;;
70829;SDS011;58451;51.550;7.208;2023-10-31T06:02:36;14.10;;;5.80;;
70829;SDS011;58451;51.550;7.208;2023-10-31T06:04:08;15.60;;;5.40;;
70829;SDS011;58451;51.550;7.208;2023-10-31T06:05:40;11.30;;;4.50;;
70829;SDS011;58451;51.550;7.208;2023-10-31T06:07:12;11.60;;;5.20;;
70829;SDS011;58451;51.550;7.208;2023-10-31T06:08:44;14.00;;;5.50;;
70829;SDS011;58451;51.550;7.208;2023-10-31T06:10:16;12.10;;;5.80;;
70829;SDS011;58451;51.550;7.208;2023-10-31T06:11:48;12.30;;;5.40;;
70829;SDS011;58451;51.550;7.208;2023-10-31T06:13:20;13.80;;;6.20;;
70829;SDS011;58451;51.550;7.208;2023-10-31T06:14:51;13.40;;;5.50;;
70829;SDS011;58451;51.550;7.208;2023-10-31T06:16:23;11.50;;;5.10;;
70829;SDS011;58451;51.550;7.208;2023-10-31T06:17:55;14.60;;;5.70;;
70829;SDS011;58451;51.550;7.208;2023-10-31T06:19:27;13.10;;;5.80;;
70829;SDS011;58451;51.550;7.208;2023-10-31T06:20:59;13.00;;;6.00;;
70829;SDS011;58451;51.550;7.208;2023-10-31T06:22:31;16.10;;;7.00;;
70829;SDS011;58451;51.550;7.208;2023-10-31T06:24:03;13.50;;;6.60;;
70829;SDS011;58451;51.550;7.208;2023-10-31T06:25:37;15.20;;;7.40;;
70829;SDS011;58451;51.550;7.208;2023-10-31T06:27:09;14.50;;;6.70;;
70829;SDS011;58451;51.550;7.208;2023-10-31T06:28:41;15.80;;;6.70;;
70829;SDS011;58451;51.550;7.208;2023-10-31T06:30:28;16.60;;;7.10;;
70829;SDS011;58451;51.550;7.208;2023-10-31T06:32:00;13.50;;;6.00;;
70829;SDS011;58451;51.550;7.208;2023-10-31T06:33:33;16.30;;;6.90;;
70829;SDS011;58451;51.550;7.208;2023-10-31T06:35:06;17.70;;;7.60;;
70829;SDS011;58451;51.550;7.208;2023-10-31T06:36:38;15.80;;;7.40;;
70829;SDS011;58451;51.550;7.208;2023-10-31T06:38:10;15.50;;;6.80;;
70829;SDS011;58451;51.550;7.208;2023-10-31T06:39:42;16.70;;;7.40;;
70829;SDS011;58451;51.550;7.208;2023-10-31T06:41:14;14.20;;;6.50;;
70829;SDS011;58451;51.550;7.208;2023-10-31T06:42:46;14.10;;;6.10;;
70829;SDS011;58451;51.550;7.208;2023-10-31T06:44:17;16.50;;;7.50;;
70829;SDS011;58451;51.550;7.208;2023-10-31T06:45:49;16.40;;;7.20;;
70829;SDS011;58451;51.550;7.208;2023-10-31T06:47:21;15.70;;;7.30;;
70829;SDS011;58451;51.550;7.208;2023-10-31T06:48:53;16.40;;;7.40;;
70829;SDS011;58451;51.550;7.208;2023-10-31T06:50:25;16.50;;;7.40;;
70829;SDS011;58451;51.550;7.208;2023-10-31T06:51:57;18.60;;;8.60;;
70829;SDS011;58451;51.550;7.208;2023-10-31T06:53:29;19.10;;;8.30;;
70829;SDS011;58451;51.550;7.208;2023-10-31T06:55:01;16.30;;;7.70;;
70829;SDS011;58451;51.550;7.208;2023-10-31T06:56:33;16.40;;;7.50;;
70829;SDS011;58451;51.550;7.208;2023-10-31T06:58:04;13.50;;;5.90;;
70829;SDS011;58451;51.550;7.208;2023-10-31T06:59:36;14.70;;;7.20;;
70829;SDS011;58451;51.550;7.208;2023-10-31T07:01:08;16.60;;;7.40;;
70829;SDS011;58451;51.550;7.208;2023-10-31T07:02:40;16.80;;;7.20;;
70829;SDS011;58451;51.550;7.208;2023-10-31T07:04:12;17.60;;;7.60;;
70829;SDS011;58451;51.550;7.208;2023-10-31T07:05:45;17.80;;;8.10;;
70829;SDS011;58451;51.550;7.208;2023-10-31T07:07:18;17.30;;;7.60;;
70829;SDS011;58451;51.550;7.208;2023-10-31T07:08:50;14.30;;;6.60;;
70829;SDS011;58451;51.550;7.208;2023-10-31T07:10:22;21.00;;;8.50;;
70829;SDS011;58451;51.550;7.208;2023-10-31T07:11:53;17.60;;;8.00;;
70829;SDS011;58451;51.550;7.208;2023-10-31T07:13:26;17.10;;;7.90;;
70829;SDS011;58451;51.550;7.208;2023-10-31T07:14:58;17.30;;;7.90;;
70829;SDS011;58451;51.550;7.208;2023-10-31T07:16:32;18.30;;;8.70;;
70829;SDS011;58451;51.550;7.208;2023-10-31T07:18:06;17.50;;;8.30;;
70829;SDS011;58451;51.550;7.208;2023-10-31T07:19:39;17.70;;;8.70;;
70829;SDS011;58451;51.550;7.208;2023-10-31T07:21:11;15.90;;;7.80;;
70829;SDS011;58451;51.550;7.208;2023-10-31T07:22:44;19.90;;;8.80;;
70829;SDS011;58451;51.550;7.208;2023-10-31T07:24:17;17.20;;;8.60;;
70829;SDS011;58451;51.550;7.208;2023-10-31T07:25:49;17.30;;;7.70;;
70829;SDS011;58451;51.550;7.208;2023-10-31T07:27:21;15.70;;;7.30;;
70829;SDS011;58451;51.550;7.208;2023-10-31T07:28:53;16.60;;;7.80;;
70829;SDS011;58451;51.550;7.208;2023-10-31T07:30:26;15.90;;;8.10;;
70829;SDS011;58451;51.550;7.208;2023-10-31T07:31:58;18.10;;;7.80;;
70829;SDS011;58451;51.550;7.208;2023-10-31T07:33:30;16.10;;;6.80;;
70829;SDS011;58451;51.550;7.208;2023-10-31T07:35:03;13.40;;;5.70;;
70829;SDS011;58451;51.550;7.208;2023-10-31T07:36:35;18.90;;;7.00;;
70829;SDS011;58451;51.550;7.208;2023-10-31T07:38:07;13.90;;;6.20;;
70829;SDS011;58451;51.550;7.208;2023-10-31T07:39:39;13.90;;;5.90;;
70829;SDS011;58451;51.550;7.208;2023-10-31T07:41:11;12.30;;;6.00;;
70829;SDS011;58451;51.550;7.208;2023-10-31T07:42:43;13.70;;;6.60;;
70829;SDS011;58451;51.550;7.208;2023-10-31T07:44:14;12.60;;;6.20;;
70829;SDS011;58451;51.550;7.208;2023-10-31T07:45:46;12.30;;;5.70;;
70829;SDS011;58451;51.550;7.208;2023-10-31T07:47:18;12.90;;;5.90;;
70829;SDS011;58451;51.550;7.208;2023-10-31T07:48:50;11.60;;;5.50;;
70829;SDS011;58451;51.550;7.208;2023-10-31T07:50:22;12.80;;;5.90;;
70829;SDS011;58451;51.550;7.208;2023-10-31T07:51:54;10.90;;;5.20;;
70829;SDS011;58451;51.550;7.208;2023-10-31T07:53:26;11.20;;;5.50;;
70829;SDS011;58451;51.550;7.208;2023-10-31T07:54:58;10.10;;;5.20;;
70829;SDS011;58451;51.550;7.208;2023-10-31T07:56:29;10.80;;;5.50;;
70829;SDS011;58451;51.550;7.208;2023-10-31T07:58:01;11.10;;;5.30;;
70829;SDS011;58451;51.550;7.208;2023-10-31T07:59:34;13.00;;;6.20;;
70829;SDS011;58451;51.550;7.208;2023-10-31T08:01:06;11.40;;;5.50;;
70829;SDS011;58451;51.550;7.208;2023-10-31T08:02:42;12.00;;;5.90;;
70829;SDS011;58451;51.550;7.208;2023-10-31T08:04:14;11.60;;;5.30;;
70829;SDS011;58451;51.550;7.208;2023-10-31T08:05:46;11.30;;;5.00;;
70829;SDS011;58451;51.550;7.208;2023-10-31T08:07:18;11.90;;;4.90;;
70829;SDS011;58451;51.550;7.208;2023-10-31T08:08:50;10.80;;;5.40;;
70829;SDS011;58451;51.550;7.208;2023-10-31T08:10:22;11.00;;;5.20;;
70829;SDS011;58451;51.550;7.208;2023-10-31T08:11:54;10.40;;;4.60;;
70829;SDS011;58451;51.550;7.208;2023-10-31T08:13:26;12.60;;;5.80;;
70829;SDS011;58451;51.550;7.208;2023-10-31T08:14:57;11.40;;;5.10;;
70829;SDS011;58451;51.550;7.208;2023-10-31T08:16:30;12.60;;;5.30;;
70829;SDS011;58451;51.550;7.208;2023-10-31T08:18:02;10.90;;;4.90;;
70829;SDS011;58451;51.550;7.208;2023-10-31T08:19:34;11.80;;;5.60;;
70829;SDS011;58451;51.550;7.208;2023-10-31T08:21:06;11.40;;;5.30;;
70829;SDS011;58451;51.550;7.208;2023-10-31T08:22:38;10.10;;;5.10;;
70829;SDS011;58451;51.550;7.208;2023-10-31T08:24:10;10.80;;;5.40;;
70829;SDS011;58451;51.550;7.208;2023-10-31T08:25:45;11.20;;;5.80;;
70829;SDS011;58451;51.550;7.208;2023-10-31T08:27:17;11.10;;;5.70;;
70829;SDS011;58451;51.550;7.208;2023-10-31T08:28:48;11.90;;;6.30;;
70829;SDS011;58451;51.550;7.208;2023-10-31T08:30:20;12.30;;;6.20;;
70829;SDS011;58451;51.550;7.208;2023-10-31T08:31:52;11.10;;;5.00;;
70829;SDS011;58451;51.550;7.208;2023-10-31T08:33:24;13.30;;;6.90;;
70829;SDS011;58451;51.550;7.208;2023-10-31T08:34:56;14.50;;;6.90;;
70829;SDS011;58451;51.550;7.208;2023-10-31T08:36:29;12.40;;;6.30;;
70829;SDS011;58451;51.550;7.208;2023-10-31T08:38:01;12.10;;;6.60;;
70829;SDS011;58451;51.550;7.208;2023-10-31T08:39:33;12.00;;;6.20;;
70829;SDS011;58451;51.550;7.208;2023-10-31T08:41:05;11.10;;;6.00;;
70829;SDS011;58451;51.550;7.208;2023-10-31T08:42:37;12.70;;;5.40;;
70829;SDS011;58451;51.550;7.208;2023-10-31T08:44:09;11.20;;;5.80;;
70829;SDS011;58451;51.550;7.208;2023-10-31T08:45:40;11.90;;;6.20;;
70829;SDS011;58451;51.550;7.208;2023-10-31T08:47:12;14.20;;;5.70;;
70829;SDS011;58451;51.550;7.208;2023-10-31T08:48:44;11.10;;;5.70;;
70829;SDS011;58451;51.550;7.208;2023-10-31T08:50:16;12.10;;;5.70;;
70829;SDS011;58451;51.550;7.208;2023-10-31T08:51:48;10.30;;;5.80;;
70829;SDS011;58451;51.550;7.208;2023-10-31T08:53:20;10.50;;;5.30;;
70829;SDS011;58451;51.550;7.208;2023-10-31T08:54:52;9.60;;;4.60;;
70829;SDS011;58451;51.550;7.208;2023-10-31T08:56:23;11.20;;;5.50;;
70829;SDS011;58451;51.550;7.208;2023-10-31T08:57:55;9.50;;;5.10;;
70829;SDS011;58451;51.550;7.208;2023-10-31T08:59:27;10.00;;;5.50;;
70829;SDS011;58451;51.550;7.208;2023-10-31T09:00:59;10.10;;;5.50;;
70829;SDS011;58451;51.550;7.208;2023-10-31T09:02:31;9.90;;;5.10;;
70829;SDS011;58451;51.550;7.208;2023-10-31T09:04:03;10.20;;;5.10;;
70829;SDS011;58451;51.550;7.208;2023-10-31T09:05:35;10.10;;;5.10;;
70829;SDS011;58451;51.550;7.208;2023-10-31T09:07:07;9.70;;;5.00;;
70829;SDS011;58451;51.550;7.208;2023-10-31T09:08:39;9.00;;;4.70;;
70829;SDS011;58451;51.550;7.208;2023-10-31T09:10:12;10.40;;;4.80;;
70829;SDS011;58451;51.550;7.208;2023-10-31T09:11:44;9.80;;;4.60;;